Time;durP1;ratioP1;P1;durP2;ratioP2;P2;SDS_P1;SDS_P2;PMS_P1;PMS_P2;Temp;Humidity;BMP_temperature;BMP_pressure;BME280_temperature;BME280_humidity;BME280_pressure;Samples;Min_cycle;Max_cycle;Signal;HPM_P1;HPM_P2
2023/09/07 00:01:10;;;;;;;11.60;6.05;;;;;;;19.81;68.37;94433.63;5082512;28;20115;-79
2023/09/07 00:03:40;;;;;;;12.40;6.18;;;;;;;19.82;68.61;94427.09;5082313;28;20323;-79
2023/09/07 00:06:06;;;;;;;11.57;6.50;;;;;;;19.81;68.65;94422.78;5082172;28;20070;-79
2023/09/07 00:08:32;;;;;;;12.45;6.97;;;;;;;19.80;68.79;94417.72;5082348;28;20087;-79
2023/09/07 00:11:03;;;;;;;11.40;6.47;;;;;;;19.79;69.18;94416.97;5082213;28;20327;-79
2023/09/07 00:13:29;;;;;;;10.27;7.22;;;;;;;19.80;69.41;94410.44;5082424;28;20016;-79
2023/09/07 00:15:59;;;;;;;12.48;7.22;;;;;;;19.81;69.54;94417.38;5082217;28;20219;-78
2023/09/07 00:18:25;;;;;;;14.38;6.82;;;;;;;19.81;69.10;94422.78;5082215;28;20329;-79
2023/09/07 00:20:50;;;;;;;12.45;6.78;;;;;;;19.79;68.96;94414.25;5082178;28;20028;-80
2023/09/07 00:23:16;;;;;;;11.63;6.38;;;;;;;19.77;68.73;94424.66;5082025;28;20051;-79
2023/09/07 00:25:41;;;;;;;12.73;8.20;;;;;;;19.78;69.04;94426.22;5082700;28;20052;-79
2023/09/07 00:28:07;;;;;;;11.13;7.18;;;;;;;19.72;68.90;94419.53;5084573;28;20021;-79
2023/09/07 00:30:32;;;;;;;11.25;7.00;;;;;;;19.73;69.17;94420.31;5085679;28;20020;-79
2023/09/07 00:32:57;;;;;;;9.80;5.95;;;;;;;19.72;69.57;94414.13;5085629;28;20080;-80
2023/09/07 00:35:23;;;;;;;12.27;7.78;;;;;;;19.74;69.93;94417.28;5067681;28;20028;-80
2023/09/07 00:37:48;;;;;;;12.55;8.10;;;;;;;19.71;70.63;94406.38;5085514;28;20020;-79
2023/09/07 00:40:13;;;;;;;16.00;9.70;;;;;;;19.69;71.46;94405.91;5067645;28;20044;-80
2023/09/07 00:42:39;;;;;;;14.13;9.45;;;;;;;19.62;71.58;94401.94;5085497;28;20192;-79
2023/09/07 00:45:05;;;;;;;12.73;9.27;;;;;;;19.58;71.09;94400.28;5085379;28;20020;-79
2023/09/07 00:47:34;;;;;;;15.02;9.68;;;;;;;19.57;70.59;94396.03;5085386;28;20031;-79
2023/09/07 00:50:00;;;;;;;14.27;10.75;;;;;;;19.54;70.74;94404.84;5085249;28;20020;-79
2023/09/07 00:52:26;;;;;;;17.02;12.68;;;;;;;19.52;70.74;94409.81;5085203;28;20064;-79
2023/09/07 00:54:52;;;;;;;17.42;11.45;;;;;;;19.48;71.13;94404.38;5085137;28;20036;-78
2023/09/07 00:57:17;;;;;;;17.70;11.68;;;;;;;19.44;71.52;94404.28;5085274;28;20115;-78
2023/09/07 00:59:43;;;;;;;16.52;12.18;;;;;;;19.38;72.17;94402.25;5085206;28;20247;-78
2023/09/07 01:02:08;;;;;;;16.38;12.40;;;;;;;19.33;72.33;94402.50;5085204;28;20025;-78
2023/09/07 01:04:34;;;;;;;18.38;12.75;;;;;;;19.28;72.87;94397.41;5084869;28;20048;-78
2023/09/07 01:07:20;;;;;;;18.33;13.32;;;;;;;19.25;72.83;94401.56;5084925;28;20024;-79
2023/09/07 01:09:48;;;;;;;18.98;13.32;;;;;;;19.23;72.96;94395.75;5084990;28;20021;-79
2023/09/07 01:12:15;;;;;;;22.25;12.82;;;;;;;19.26;73.33;94395.03;5084715;28;20104;-79
2023/09/07 01:14:41;;;;;;;19.40;12.65;;;;;;;19.20;73.78;94397.25;5084606;28;20024;-78
2023/09/07 01:17:07;;;;;;;18.63;13.63;;;;;;;19.14;74.27;94398.66;5084733;28;20092;-78
2023/09/07 01:19:33;;;;;;;20.25;14.52;;;;;;;19.16;74.27;94399.09;5084723;28;20024;-78
2023/09/07 01:21:59;;;;;;;18.92;14.38;;;;;;;19.14;73.94;94395.94;5084527;28;20017;-78
2023/09/07 01:24:26;;;;;;;21.52;14.95;;;;;;;19.12;73.76;94392.81;5066803;28;20052;-79
2023/09/07 01:26:52;;;;;;;24.08;15.48;;;;;;;19.14;73.08;94393.25;5084863;28;20221;-79
2023/09/07 01:29:18;;;;;;;26.58;15.95;;;;;;;19.13;72.92;94388.19;5084495;28;20040;-79
2023/09/07 01:31:43;;;;;;;23.48;15.88;;;;;;;19.13;72.52;94391.69;5084671;28;20024;-79
2023/09/07 01:34:09;;;;;;;22.20;15.18;;;;;;;19.09;72.39;94382.75;5066485;28;20370;-78
2023/09/07 01:36:35;;;;;;;25.38;16.00;;;;;;;19.13;71.87;94390.91;5083904;28;20016;-78
2023/09/07 01:39:01;;;;;;;21.67;16.38;;;;;;;19.10;71.90;94388.91;5084352;28;20023;-78
2023/09/07 01:41:26;;;;;;;20.92;15.15;;;;;;;19.14;71.58;94395.19;5084371;28;20027;-78
2023/09/07 01:43:52;;;;;;;22.85;16.20;;;;;;;19.13;71.92;94388.19;5084568;28;20032;-78
2023/09/07 01:46:17;;;;;;;21.27;15.38;;;;;;;19.14;71.79;94395.19;5084215;28;20180;-78
2023/09/07 01:48:43;;;;;;;20.63;15.85;;;;;;;19.16;71.52;94392.91;5083877;28;20038;-79
2023/09/07 01:51:08;;;;;;;19.65;15.20;;;;;;;19.16;71.32;94392.91;5066287;28;20028;-78
2023/09/07 01:53:34;;;;;;;19.15;14.45;;;;;;;19.20;71.02;94396.47;5066322;28;20025;-78
2023/09/07 01:55:59;;;;;;;22.23;15.63;;;;;;;19.19;70.79;94397.59;5083900;28;20044;-79
2023/09/07 01:58:25;;;;;;;20.50;14.73;;;;;;;19.21;71.01;94403.41;5082900;28;20028;-79
2023/09/07 02:00:56;;;;;;;20.63;14.32;;;;;;;19.18;70.80;94398.72;5083848;28;20068;-78
2023/09/07 02:03:21;;;;;;;19.55;13.90;;;;;;;19.20;70.72;94399.16;5066276;28;20017;-78
2023/09/07 02:05:47;;;;;;;18.63;13.82;;;;;;;19.20;70.58;94388.34;5082672;28;20333;-79
2023/09/07 02:08:12;;;;;;;21.98;13.35;;;;;;;19.18;70.71;94388.69;5083905;28;20016;-78
2023/09/07 02:10:39;;;;;;;21.27;13.18;;;;;;;19.16;70.82;94387.50;5083613;28;20108;-78
2023/09/07 02:13:04;;;;;;;21.23;13.95;;;;;;;19.18;70.98;94393.34;5083366;28;20025;-78
2023/09/07 02:15:30;;;;;;;20.45;13.52;;;;;;;19.18;70.48;94390.63;5083362;28;20036;-78
2023/09/07 02:17:55;;;;;;;19.02;13.70;;;;;;;19.21;70.49;94393.41;5083645;28;20047;-79
2023/09/07 02:20:21;;;;;;;17.65;13.35;;;;;;;19.23;70.51;94383.03;5065917;28;20121;-79
2023/09/07 02:22:46;;;;;;;18.92;12.50;;;;;;;19.24;71.17;94391.91;5083462;28;20028;-79
2023/09/07 02:25:12;;;;;;;22.00;13.88;;;;;;;19.18;71.71;94396.03;5083315;28;20376;-79
2023/09/07 02:27:37;;;;;;;24.00;13.25;;;;;;;19.18;72.52;94398.72;5083430;28;20254;-79
2023/09/07 02:30:04;;;;;;;15.98;12.05;;;;;;;19.18;72.66;94396.03;5065631;28;20227;-79
2023/09/07 02:32:31;;;;;;;21.92;12.95;;;;;;;19.16;72.82;94398.31;5083253;28;20027;-79
2023/09/07 02:34:57;;;;;;;19.95;12.75;;;;;;;19.18;73.07;94396.03;5083230;28;20027;-79
2023/09/07 02:37:23;;;;;;;21.55;13.07;;;;;;;19.08;73.56;94396.59;5082963;28;20062;-79
2023/09/07 02:39:48;;;;;;;18.45;12.32;;;;;;;19.07;74.26;94406.63;5082235;28;20043;-79
2023/09/07 02:42:13;;;;;;;22.20;12.70;;;;;;;19.06;73.88;94410.44;5065504;28;20039;-79
2023/09/07 02:44:39;;;;;;;16.50;12.25;;;;;;;19.03;74.29;94408.44;5065387;28;20020;-79
2023/09/07 02:47:04;;;;;;;19.17;12.65;;;;;;;19.04;74.39;94405.38;5083065;28;20024;-79
2023/09/07 02:49:30;;;;;;;18.70;12.40;;;;;;;19.01;74.59;94402.59;5082330;28;20331;-79
2023/09/07 02:51:56;;;;;;;22.63;12.32;;;;;;;18.95;74.77;94407.53;5083205;28;20095;-79
2023/09/07 02:54:22;;;;;;;21.02;12.02;;;;;;;18.90;75.32;94401.59;5083101;28;20303;-79
2023/09/07 02:56:47;;;;;;;26.23;13.15;;;;;;;18.88;75.61;94404.66;5082989;28;20028;-79
2023/09/07 02:59:13;;;;;;;16.38;12.45;;;;;;;18.88;75.65;94403.88;5064926;28;20043;-79
2023/09/07 03:01:39;;;;;;;22.65;12.77;;;;;;;18.93;75.69;94409.78;5083030;28;20024;-79
2023/09/07 03:04:05;;;;;;;22.77;13.18;;;;;;;18.88;75.94;94415.44;5083148;28;20032;-79
2023/09/07 03:06:31;;;;;;;22.70;13.30;;;;;;;18.89;75.81;94417.03;5083107;28;20061;-79
2023/09/07 03:08:57;;;;;;;20.33;14.77;;;;;;;18.81;76.47;94412.59;5082575;28;20020;-80
2023/09/07 03:11:22;;;;;;;18.65;13.63;;;;;;;18.75;77.23;94411.28;5081508;28;20071;-80
2023/09/07 03:13:48;;;;;;;18.48;13.88;;;;;;;18.74;77.86;94407.00;5082974;28;20062;-79
2023/09/07 03:16:13;;;;;;;24.85;14.35;;;;;;;18.74;78.13;94413.19;5082582;28;20036;-80
2023/09/07 03:19:19;;;;;;;20.42;14.15;;;;;;;18.71;78.18;94411.19;5082594;28;20056;-79
2023/09/07 03:21:45;;;;;;;21.08;14.90;;;;;;;18.68;78.32;94405.72;5063754;28;20032;-79
2023/09/07 03:24:10;;;;;;;23.20;14.80;;;;;;;18.62;78.79;94411.38;5081580;28;20095;-79
2023/09/07 03:26:36;;;;;;;28.35;15.32;;;;;;;18.61;78.81;94412.50;5081985;28;20619;-79
2023/09/07 03:29:01;;;;;;;20.58;14.43;;;;;;;18.59;78.86;94408.59;5082520;28;20047;-79
2023/09/07 03:31:26;;;;;;;24.92;15.05;;;;;;;18.58;78.98;94424.03;5082658;28;20025;-79
2023/09/07 03:33:52;;;;;;;21.40;15.63;;;;;;;18.61;79.27;94417.91;5082907;28;20071;-79
2023/09/07 03:36:17;;;;;;;25.17;14.95;;;;;;;18.58;79.24;94415.94;5082695;28;20029;-79
2023/09/07 03:38:43;;;;;;;23.63;14.88;;;;;;;18.57;79.68;94417.03;5082629;28;20025;-79
2023/09/07 03:41:08;;;;;;;26.98;15.88;;;;;;;18.60;79.41;94420.94;5081357;28;20032;-79
2023/09/07 03:43:34;;;;;;;20.70;14.25;;;;;;;18.55;79.52;94416.59;5082444;28;20025;-79
2023/09/07 03:45:59;;;;;;;23.33;14.73;;;;;;;18.54;79.60;94419.66;5082567;28;20016;-79
2023/09/07 03:48:24;;;;;;;21.25;15.25;;;;;;;18.53;79.67;94424.28;5082480;28;20031;-79
2023/09/07 03:50:50;;;;;;;22.30;15.52;;;;;;;18.51;79.88;94420.38;5064764;28;20062;-79
2023/09/07 03:53:16;;;;;;;21.45;14.40;;;;;;;18.49;79.94;94431.50;5082489;28;20226;-79
2023/09/07 03:55:42;;;;;;;26.45;14.77;;;;;;;18.44;80.16;94431.78;5064341;28;20033;-79
2023/09/07 03:58:10;;;;;;;22.08;14.13;;;;;;;18.44;80.40;94432.56;5082130;28;20099;-79
2023/09/07 04:00:39;;;;;;;22.65;14.88;;;;;;;18.48;80.67;94432.66;5082864;28;20032;-79
2023/09/07 04:03:05;;;;;;;20.88;15.02;;;;;;;18.47;81.17;94438.38;5086319;28;20031;-79
2023/09/07 04:05:31;;;;;;;22.83;15.55;;;;;;;18.46;81.11;94434.91;5068229;28;20058;-80
2023/09/07 04:07:57;;;;;;;24.63;15.43;;;;;;;18.46;81.32;94437.63;5086085;28;20021;-81
2023/09/07 04:10:22;;;;;;;22.73;15.82;;;;;;;18.41;81.44;94435.16;5086180;28;20048;-81
2023/09/07 04:12:48;;;;;;;21.05;15.30;;;;;;;18.39;81.48;94432.03;5086295;28;20333;-80
2023/09/07 04:15:13;;;;;;;23.60;15.77;;;;;;;18.39;82.06;94445.53;5067751;28;20035;-79
2023/09/07 04:17:40;;;;;;;25.17;16.15;;;;;;;18.41;81.77;94429.75;5085791;28;20223;-79
2023/09/07 04:20:07;;;;;;;20.45;15.07;;;;;;;18.39;82.13;94437.44;5085923;28;20229;-79
2023/09/07 04:22:33;;;;;;;20.67;15.40;;;;;;;18.40;82.10;94436.31;5085762;28;20020;-79
2023/09/07 04:24:58;;;;;;;23.80;15.73;;;;;;;18.38;82.26;94435.88;5085780;28;20055;-79
2023/09/07 04:27:24;;;;;;;25.48;14.63;;;;;;;18.36;82.14;94432.72;5085550;28;20071;-80
2023/09/07 04:29:49;;;;;;;26.08;15.38;;;;;;;18.32;81.93;94439.94;5085973;28;20374;-80
2023/09/07 04:32:15;;;;;;;21.55;14.13;;;;;;;18.35;81.91;94441.94;5067685;28;20315;-79
2023/09/07 04:34:40;;;;;;;23.13;14.23;;;;;;;18.36;81.59;94438.09;5067644;28;20311;-79
2023/09/07 04:37:06;;;;;;;20.23;14.93;;;;;;;18.40;81.97;94433.63;5067899;28;20028;-79
2023/09/07 04:39:31;;;;;;;22.80;15.02;;;;;;;18.38;81.96;94441.28;5067777;28;20046;-80
2023/09/07 04:41:56;;;;;;;20.70;14.80;;;;;;;18.44;82.06;94439.88;5085359;28;20047;-79
2023/09/07 04:44:22;;;;;;;28.67;15.80;;;;;;;18.46;81.92;94440.31;5085729;28;20052;-80
2023/09/07 04:46:47;;;;;;;18.27;13.43;;;;;;;18.45;81.37;94442.22;5085431;28;20064;-79
2023/09/07 04:49:13;;;;;;;24.17;13.23;;;;;;;18.48;80.69;94440.75;5085482;28;20032;-80
2023/09/07 04:51:38;;;;;;;17.13;11.48;;;;;;;18.49;79.88;94441.53;5067456;28;20032;-80
2023/09/07 04:54:04;;;;;;;15.25;12.05;;;;;;;18.54;79.85;94444.75;5085309;28;20024;-79
2023/09/07 04:56:29;;;;;;;16.27;10.95;;;;;;;18.56;78.71;94445.19;5085150;28;20051;-80
2023/09/07 04:58:55;;;;;;;16.45;10.82;;;;;;;18.65;77.87;94453.88;5085261;28;20017;-80
2023/09/07 05:01:20;;;;;;;26.60;11.95;;;;;;;18.74;77.83;94458.31;5085347;28;20031;-80
2023/09/07 05:03:46;;;;;;;21.08;13.07;;;;;;;18.79;77.99;94452.69;5085153;28;20227;-80
2023/09/07 05:06:11;;;;;;;21.80;12.50;;;;;;;18.87;77.58;94454.41;5085135;28;20292;-80
2023/09/07 05:08:37;;;;;;;19.48;10.00;;;;;;;18.94;73.87;94449.16;5085119;28;20020;-80
2023/09/07 05:11:03;;;;;;;11.82;7.97;;;;;;;18.99;71.87;94453.50;5084820;28;20135;-80
2023/09/07 05:13:29;;;;;;;13.10;8.35;;;;;;;19.04;71.15;94442.44;5084639;28;20043;-79
2023/09/07 05:15:56;;;;;;;13.65;8.13;;;;;;;19.13;70.16;94450.34;5067029;28;20095;-80
2023/09/07 05:18:22;;;;;;;12.75;7.47;;;;;;;19.12;68.96;94454.19;5084997;28;20024;-80
2023/09/07 05:20:51;;;;;;;15.23;7.63;;;;;;;19.15;68.49;94454.28;5084853;28;20024;-80
2023/09/07 05:23:17;;;;;;;14.02;8.60;;;;;;;19.20;68.06;94458.59;5084600;28;20420;-80
2023/09/07 05:25:45;;;;;;;11.95;6.82;;;;;;;19.26;66.88;94461.81;5084706;28;20020;-80
2023/09/07 05:28:11;;;;;;;10.85;6.45;;;;;;;19.26;65.89;94462.59;5084644;28;20246;-80
2023/09/07 05:30:36;;;;;;;25.30;7.95;;;;;;;19.32;66.04;94468.53;5084706;28;20114;-80
2023/09/07 05:33:01;;;;;;;15.98;7.43;;;;;;;19.35;66.65;94465.88;5084509;28;20020;-80
2023/09/07 05:35:29;;;;;;;21.10;7.57;;;;;;;19.41;66.11;94472.56;5084457;28;20024;-81
2023/09/07 05:37:54;;;;;;;12.80;7.53;;;;;;;19.50;66.30;94475.09;5084717;28;20035;-79
2023/09/07 05:40:19;;;;;;;19.05;8.32;;;;;;;19.57;66.86;94477.16;5084650;28;20024;-80
2023/09/07 05:42:45;;;;;;;15.27;8.75;;;;;;;19.57;67.33;94472.50;5084268;28;20024;-80
2023/09/07 05:45:10;;;;;;;26.17;11.38;;;;;;;19.59;68.24;94475.66;5084411;28;20016;-80
2023/09/07 05:47:36;;;;;;;27.27;12.88;;;;;;;19.68;70.63;94470.00;5084302;28;20202;-80
2023/09/07 05:50:01;;;;;;;23.85;13.20;;;;;;;19.73;71.54;94471.69;5084215;28;20369;-80
2023/09/07 05:52:26;;;;;;;27.38;12.32;;;;;;;19.76;71.83;94468.28;5083879;28;20028;-80
2023/09/07 05:54:52;;;;;;;28.10;13.15;;;;;;;19.76;72.53;94468.28;5084281;28;20277;-80
2023/09/07 05:57:17;;;;;;;21.73;14.52;;;;;;;19.74;72.61;94471.34;5084341;28;20017;-81
2023/09/07 05:59:42;;;;;;;16.85;10.93;;;;;;;19.74;72.53;94476.75;5083927;28;20020;-80
2023/09/07 06:02:08;;;;;;;29.15;13.48;;;;;;;19.74;72.65;94476.75;5083983;28;20230;-80
2023/09/07 06:04:35;;;;;;;28.77;13.23;;;;;;;19.80;72.62;94467.22;5083996;28;20390;-80
2023/09/07 06:07:00;;;;;;;16.30;11.73;;;;;;;19.87;73.12;94473.91;5083618;28;20084;-80
2023/09/07 06:09:25;;;;;;;18.65;12.48;;;;;;;20.00;73.54;94476.09;5083706;28;20020;-80
2023/09/07 06:11:51;;;;;;;17.73;12.52;;;;;;;20.10;73.11;94471.25;5083659;28;20388;-80
2023/09/07 06:14:16;;;;;;;17.77;11.55;;;;;;;20.24;72.32;94477.69;5083722;28;20024;-79
2023/09/07 06:16:42;;;;;;;18.50;11.20;;;;;;;20.38;71.80;94474.47;5083246;28;20066;-78
2023/09/07 06:19:08;;;;;;;24.55;11.65;;;;;;;20.56;71.49;94476.69;5083480;28;20059;-78
2023/09/07 06:21:33;;;;;;;21.02;9.70;;;;;;;20.76;70.28;94469.28;5065974;28;20112;-78
2023/09/07 06:23:59;;;;;;;16.95;9.70;;;;;;;20.94;68.85;94481.19;5082806;28;20388;-78
2023/09/07 06:26:25;;;;;;;19.23;10.10;;;;;;;21.16;67.04;94466.03;5083621;28;20342;-78
2023/09/07 06:28:50;;;;;;;21.60;9.00;;;;;;;21.36;65.52;94472.13;5083646;28;20130;-79
2023/09/07 06:31:16;;;;;;;17.20;8.27;;;;;;;21.56;64.65;94483.66;5083108;28;20215;-78
2023/09/07 06:33:41;;;;;;;15.25;8.30;;;;;;;21.67;62.66;94478.34;5083408;28;20265;-78
2023/09/07 06:36:06;;;;;;;11.15;6.53;;;;;;;21.75;60.22;94485.44;5083278;28;20297;-78
2023/09/07 06:38:32;;;;;;;12.25;7.32;;;;;;;21.75;58.98;94469.16;5083200;28;20044;-79
2023/09/07 06:40:57;;;;;;;14.15;6.28;;;;;;;21.82;57.80;94482.81;5083388;28;20051;-79
2023/09/07 06:43:22;;;;;;;12.65;6.03;;;;;;;21.96;58.62;94476.78;5083433;28;20030;-76
2023/09/07 06:45:48;;;;;;;11.43;6.00;;;;;;;22.09;59.15;94481.97;5083315;28;20020;-76
2023/09/07 06:48:13;;;;;;;12.57;6.93;;;;;;;22.16;59.20;94479.31;5083226;28;20219;-76
2023/09/07 06:50:39;;;;;;;20.70;7.03;;;;;;;22.28;58.71;94478.31;5083458;28;20025;-76
2023/09/07 06:53:04;;;;;;;16.60;6.20;;;;;;;22.35;59.05;94481.88;5083067;28;20051;-76
2023/09/07 06:55:30;;;;;;;10.60;5.65;;;;;;;22.50;58.27;94476.59;5083082;28;20024;-75
2023/09/07 06:57:55;;;;;;;14.57;6.03;;;;;;;22.60;57.39;94484.03;5082671;28;20087;-76
2023/09/07 07:00:21;;;;;;;13.63;6.78;;;;;;;22.73;56.46;94481.81;5083386;28;20019;-75
2023/09/07 07:02:47;;;;;;;9.98;6.10;;;;;;;22.83;56.38;94470.25;5083286;28;20043;-74
2023/09/07 07:05:12;;;;;;;12.52;6.15;;;;;;;22.82;55.96;94479.56;5083037;28;20087;-73
2023/09/07 07:07:38;;;;;;;12.35;5.85;;;;;;;22.86;55.04;94474.94;5082964;28;20012;-73
2023/09/07 07:10:04;;;;;;;9.73;6.00;;;;;;;22.93;54.35;94480.44;5082828;28;20040;-73
2023/09/07 07:12:34;;;;;;;16.50;6.78;;;;;;;23.02;54.25;94480.94;5083034;28;20203;-73
2023/09/07 07:14:59;;;;;;;12.30;5.80;;;;;;;23.05;54.53;94476.66;5082971;28;20053;-74
2023/09/07 07:17:25;;;;;;;10.68;6.18;;;;;;;23.09;54.82;94482.13;5082998;28;20227;-73
2023/09/07 07:19:50;;;;;;;17.65;6.32;;;;;;;23.09;54.14;94491.06;5083021;28;20016;-73
2023/09/07 07:22:15;;;;;;;13.88;5.72;;;;;;;23.11;53.80;94490.69;5082822;28;20021;-73
2023/09/07 07:24:41;;;;;;;15.48;6.53;;;;;;;23.17;53.75;94489.97;5082755;28;20036;-73
2023/09/07 07:27:06;;;;;;;10.07;5.55;;;;;;;23.17;53.83;94506.28;5082945;28;20268;-75
2023/09/07 07:29:32;;;;;;;13.23;6.65;;;;;;;23.08;53.52;94508.56;5082824;28;20319;-75
2023/09/07 07:31:57;;;;;;;20.77;6.30;;;;;;;23.00;53.98;94507.69;5082810;28;20062;-75
2023/09/07 07:34:22;;;;;;;13.25;6.45;;;;;;;22.95;54.49;94518.13;5082601;28;20032;-75
2023/09/07 07:36:48;;;;;;;17.20;6.53;;;;;;;22.96;54.65;94511.50;5086886;28;20027;-75
2023/09/07 07:39:13;;;;;;;14.98;6.85;;;;;;;23.01;55.00;94513.88;5086734;28;20074;-75
2023/09/07 07:41:39;;;;;;;13.13;6.97;;;;;;;23.02;54.62;94513.56;5085450;28;20050;-75
2023/09/07 07:44:04;;;;;;;13.38;6.63;;;;;;;23.04;54.92;94515.91;5086750;28;20020;-75
2023/09/07 07:46:29;;;;;;;11.15;6.72;;;;;;;23.05;55.17;94517.44;5068849;28;20151;-75
2023/09/07 07:48:55;;;;;;;15.60;6.68;;;;;;;23.07;55.25;94517.06;5068651;28;20052;-74
2023/09/07 07:51:20;;;;;;;10.88;6.18;;;;;;;23.13;54.79;94523.72;5086799;28;20020;-75
2023/09/07 07:53:46;;;;;;;13.48;7.07;;;;;;;23.15;54.91;94513.25;5068753;28;20032;-75
2023/09/07 07:56:18;;;;;;;13.23;8.13;;;;;;;23.22;54.64;94524.16;5086525;28;20028;-75
2023/09/07 07:58:44;;;;;;;;;;;;;;;23.27;54.82;94523.06;5086971;28;20421;-74
2023/09/07 08:01:17;;;;;;;13.35;6.85;;;;;;;23.22;54.38;94516.81;5086434;28;19904;-74
2023/09/07 08:03:43;;;;;;;16.33;7.60;;;;;;;23.18;55.50;94521.44;5086188;28;20059;-74
2023/09/07 08:06:10;;;;;;;15.75;8.88;;;;;;;23.25;55.37;94520.72;5086450;28;20021;-75
2023/09/07 08:08:36;;;;;;;13.10;6.93;;;;;;;23.29;54.82;94523.47;5086313;28;20020;-74
2023/09/07 08:11:05;;;;;;;10.57;6.15;;;;;;;23.27;54.17;94512.94;5068211;28;20123;-75
2023/09/07 08:13:34;;;;;;;35.53;13.93;;;;;;;23.27;54.02;94509.47;5086266;28;20016;-75
2023/09/07 08:16:01;;;;;;;18.77;9.32;;;;;;;23.27;54.54;94521.09;5085995;28;20017;-75
2023/09/07 08:18:27;;;;;;;14.30;7.70;;;;;;;23.31;54.59;94524.63;5086115;28;20020;-75
2023/09/07 08:20:54;;;;;;;18.52;7.03;;;;;;;23.32;54.62;94518.00;5086002;28;20016;-75
2023/09/07 08:23:21;;;;;;;16.83;7.45;;;;;;;23.37;54.25;94514.19;5086042;28;20020;-76
2023/09/07 08:25:46;;;;;;;9.40;6.50;;;;;;;23.46;54.51;94513.84;5085854;28;20017;-75
2023/09/07 08:28:12;;;;;;;11.27;6.93;;;;;;;23.51;53.67;94508.81;5086032;28;20223;-76
2023/09/07 08:30:37;;;;;;;13.05;6.82;;;;;;;23.62;53.53;94503.44;5068189;28;20016;-76
2023/09/07 08:33:05;;;;;;;13.73;6.20;;;;;;;23.70;52.31;94504.25;5067952;28;20055;-76
2023/09/07 08:35:34;;;;;;;14.75;7.95;;;;;;;23.80;52.76;94512.50;5085838;28;20024;-75
2023/09/07 08:38:01;;;;;;;18.77;6.78;;;;;;;23.93;52.53;94512.94;5085864;28;20058;-75
2023/09/07 08:40:27;;;;;;;26.23;7.45;;;;;;;24.05;51.62;94516.50;5085771;28;20012;-76
2023/09/07 08:42:53;;;;;;;9.50;5.45;;;;;;;24.20;50.09;94515.38;5085443;28;20038;-75
2023/09/07 08:45:22;;;;;;;13.20;6.07;;;;;;;24.25;49.80;94508.78;5085814;28;20381;-76
2023/09/07 08:47:49;;;;;;;12.93;6.55;;;;;;;24.38;49.83;94508.06;5084687;28;20043;-75
2023/09/07 08:50:17;;;;;;;9.60;6.00;;;;;;;24.50;48.99;94506.91;5085474;28;20016;-75
2023/09/07 08:52:45;;;;;;;14.20;6.88;;;;;;;24.58;48.33;94507.72;5085479;28;20016;-75
2023/09/07 08:55:12;;;;;;;9.40;5.60;;;;;;;24.61;47.60;94499.56;5085489;28;20056;-75
2023/09/07 08:57:37;;;;;;;14.85;6.25;;;;;;;24.65;47.25;94496.84;5067586;28;20025;-75
2023/09/07 09:00:08;;;;;;;8.88;5.10;;;;;;;24.66;47.61;94503.06;5085411;28;20043;-75
2023/09/07 09:02:33;;;;;;;10.25;6.20;;;;;;;24.68;47.19;94500.72;5067587;28;20319;-75
2023/09/07 09:04:59;;;;;;;10.32;6.03;;;;;;;24.58;47.34;94505.00;5085278;28;20024;-75
2023/09/07 09:07:25;;;;;;;11.57;5.82;;;;;;;24.54;47.23;94506.94;5085223;28;20017;-75
2023/09/07 09:09:51;;;;;;;11.50;5.65;;;;;;;24.46;46.93;94506.09;5085265;28;20016;-73
2023/09/07 09:12:17;;;;;;;11.48;5.53;;;;;;;24.52;47.51;94501.88;5085142;28;20078;-73
2023/09/07 09:14:46;;;;;;;17.77;6.00;;;;;;;24.53;47.37;94500.72;5084814;28;20090;-73
2023/09/07 09:17:13;;;;;;;8.18;5.47;;;;;;;24.47;46.61;94501.44;5084865;28;20050;-75
2023/09/07 09:19:39;;;;;;;11.32;5.47;;;;;;;24.39;46.17;94503.38;5085044;28;20044;-73
2023/09/07 09:22:06;;;;;;;16.55;5.88;;;;;;;24.49;46.88;94499.91;5085066;28;20024;-74
2023/09/07 09:24:33;;;;;;;11.02;5.53;;;;;;;24.53;46.37;94489.81;5084728;28;20024;-74
2023/09/07 09:26:59;;;;;;;6.78;4.78;;;;;;;24.56;45.63;94499.16;5084841;28;20087;-73
2023/09/07 09:29:24;;;;;;;10.95;5.15;;;;;;;24.66;45.83;94497.63;5084757;28;20067;-73
2023/09/07 09:31:51;;;;;;;12.93;5.60;;;;;;;24.73;44.91;94481.25;5084818;28;20033;-74
2023/09/07 09:34:18;;;;;;;13.00;4.90;;;;;;;24.82;44.02;94489.84;5084778;28;20031;-73
2023/09/07 09:36:43;;;;;;;8.75;5.10;;;;;;;24.77;45.31;94488.28;5066807;28;20319;-73
2023/09/07 09:39:09;;;;;;;9.13;4.93;;;;;;;24.80;44.94;94482.03;5084694;28;20024;-74
2023/09/07 09:41:35;;;;;;;9.40;5.15;;;;;;;24.79;44.62;94482.41;5084655;28;20065;-75
2023/09/07 09:44:03;;;;;;;13.27;5.40;;;;;;;24.92;45.01;94485.56;5084369;28;20081;-74
2023/09/07 09:46:31;;;;;;;16.08;5.07;;;;;;;25.04;43.99;94479.72;5084306;28;20013;-73
2023/09/07 09:48:57;;;;;;;7.93;4.95;;;;;;;25.20;42.78;94473.84;5066479;28;20020;-73
2023/09/07 09:51:24;;;;;;;12.95;4.78;;;;;;;25.25;42.74;94481.66;5066449;28;20027;-73
2023/09/07 09:53:51;;;;;;;7.03;4.15;;;;;;;25.20;41.63;94471.13;5084334;28;20103;-74
2023/09/07 09:56:17;;;;;;;9.27;3.97;;;;;;;25.19;42.35;94470.31;5084172;28;20024;-74
2023/09/07 09:58:42;;;;;;;11.07;5.60;;;;;;;25.28;41.26;94471.91;5066300;28;20337;-74
2023/09/07 10:01:09;;;;;;;13.48;4.32;;;;;;;25.35;41.42;94474.63;5084362;28;20380;-75
2023/09/07 10:03:45;;;;;;;11.43;5.55;;;;;;;25.42;41.49;94467.22;5084246;28;20024;-74
2023/09/07 10:06:17;;;;;;;9.50;4.88;;;;;;;25.52;41.76;94470.28;5083892;28;20028;-75
2023/09/07 10:08:55;;;;;;;15.50;4.72;;;;;;;25.58;41.82;94466.00;5083877;28;20238;-74
2023/09/07 10:11:31;;;;;;;18.55;4.60;;;;;;;25.43;42.01;94468.00;5083611;28;20358;-74
2023/09/07 10:13:58;;;;;;;20.25;8.20;;;;;;;25.35;42.28;94464.50;5065754;28;20029;-75
2023/09/07 10:16:24;;;;;;;10.00;4.95;;;;;;;25.39;42.04;94461.75;5083676;28;20318;-74
2023/09/07 10:18:49;;;;;;;9.85;3.95;;;;;;;25.39;41.74;94459.81;5083774;28;20023;-74
2023/09/07 10:21:14;;;;;;;7.30;4.28;;;;;;;25.50;41.87;94461.72;5083925;28;20094;-74
2023/09/07 10:23:45;;;;;;;12.55;5.50;;;;;;;25.57;42.20;94467.19;5083768;28;20016;-74
2023/09/07 10:26:18;;;;;;;12.73;5.55;;;;;;;25.62;41.56;94464.03;5083697;28;20025;-74
2023/09/07 10:28:44;;;;;;;6.47;4.15;;;;;;;25.68;41.44;94457.00;5083662;28;20024;-74
2023/09/07 10:31:17;;;;;;;8.32;4.15;;;;;;;25.80;41.12;94456.56;5083685;28;20028;-74
2023/09/07 10:34:34;;;;;;;16.38;4.90;;;;;;;25.93;40.74;94453.41;5083408;28;20031;-74
2023/09/07 10:36:59;;;;;;;11.98;4.70;;;;;;;25.90;40.31;94448.75;5076746;28;20102;-75
2023/09/07 10:39:31;;;;;;;11.73;4.47;;;;;;;25.98;40.76;94444.81;5082747;28;20024;-75
2023/09/07 10:41:56;;;;;;;10.83;4.30;;;;;;;25.99;40.25;94460.81;5083003;28;20024;-74
2023/09/07 10:44:28;;;;;;;12.13;3.80;;;;;;;25.98;39.67;94436.63;5083517;28;20052;-74
2023/09/07 10:46:54;;;;;;;14.30;3.97;;;;;;;26.00;39.47;94450.66;5083474;28;20019;-75
2023/09/07 10:49:20;;;;;;;13.45;4.80;;;;;;;25.96;40.28;94453.41;5083424;28;20024;-75
2023/09/07 10:51:47;;;;;;;9.45;4.38;;;;;;;26.07;39.88;94439.69;5083396;28;20025;-74
2023/09/07 10:54:16;;;;;;;10.13;4.40;;;;;;;26.13;39.60;94446.28;5065416;28;20111;-74
2023/09/07 10:56:44;;;;;;;8.35;5.15;;;;;;;26.12;39.51;94449.44;5083280;28;20020;-74
2023/09/07 10:59:09;;;;;;;12.40;5.03;;;;;;;26.08;40.55;94446.72;5083189;28;20020;-74
2023/09/07 11:01:35;;;;;;;10.00;5.38;;;;;;;26.08;40.93;94440.47;5083259;28;20330;-73
2023/09/07 11:04:00;;;;;;;8.90;4.80;;;;;;;26.06;40.50;94445.56;5083027;28;20196;-73
2023/09/07 11:06:26;;;;;;;11.68;5.20;;;;;;;26.00;40.91;94442.47;5083009;28;20040;-74
2023/09/07 11:08:52;;;;;;;12.10;5.38;;;;;;;25.79;40.10;94446.81;5083123;28;20017;-75
2023/09/07 11:11:17;;;;;;;9.02;5.22;;;;;;;25.71;40.24;94439.84;5082785;28;20334;-74
2023/09/07 11:13:43;;;;;;;12.55;5.82;;;;;;;25.62;41.07;94440.25;5065118;28;20322;-74
2023/09/07 11:16:09;;;;;;;9.45;4.25;;;;;;;25.59;40.81;94443.00;5082702;28;20023;-73
2023/09/07 11:18:36;;;;;;;11.35;4.43;;;;;;;25.14;41.34;94442.69;5082707;28;20036;-74